Time;durP1;ratioP1;P1;durP2;ratioP2;P2;SDS_P1;SDS_P2;PMS_P1;PMS_P2;Temp;Humidity;BMP_temperature;BMP_pressure;BME280_temperature;BME280_humidity;BME280_pressure;Samples;Min_cycle;Max_cycle;Signal;HPM_P1;HPM_P2
2023/05/27 00:00:32;;;;;;;;;;;17.20;99.90;;;;;;5033555;28;19909;-41
2023/05/27 00:02:57;;;;;;;;;;;17.30;99.90;;;;;;5033241;28;20411;-40
2023/05/27 00:05:23;;;;;;;;;;;17.30;99.90;;;;;;5033533;28;20008;-41
2023/05/27 00:07:48;;;;;;;;;;;17.20;99.90;;;;;;5033386;28;20358;-40
2023/05/27 00:10:14;;;;;;;;;;;17.30;99.90;;;;;;5033618;28;19995;-41
2023/05/27 00:12:39;;;;;;;;;;;17.30;99.90;;;;;;5033533;28;20349;-40
2023/05/27 00:15:05;;;;;;;;;;;17.20;99.90;;;;;;5033420;28;19936;-40
2023/05/27 00:17:31;;;;;;;;;;;17.20;99.90;;;;;;5033047;28;19944;-40
2023/05/27 00:20:01;;;;;;;;;;;17.20;99.90;;;;;;5033265;28;19919;-41
2023/05/27 00:22:28;;;;;;;;;;;17.20;99.90;;;;;;5033468;28;19950;-40
2023/05/27 00:24:53;;;;;;;;;;;17.20;99.90;;;;;;5033249;28;20381;-40
2023/05/27 00:27:19;;;;;;;;;;;17.20;99.90;;;;;;5032706;28;19905;-40
2023/05/27 00:29:45;;;;;;;;;;;17.20;99.90;;;;;;5033068;28;19913;-40
2023/05/27 00:32:10;;;;;;;;;;;17.20;99.90;;;;;;5033737;28;19905;-40
2023/05/27 00:34:36;;;;;;;;;;;17.20;99.90;;;;;;5032912;28;19905;-41
2023/05/27 00:37:02;;;;;;;;;;;17.20;99.90;;;;;;5032651;28;19931;-41
2023/05/27 00:39:27;;;;;;;;;;;17.20;99.90;;;;;;5033282;28;20031;-41
2023/05/27 00:41:53;;;;;;;;;;;17.20;99.90;;;;;;5033058;28;19999;-40
2023/05/27 00:44:19;;;;;;;;;;;17.20;99.90;;;;;;5032825;28;20377;-41
2023/05/27 00:46:46;;;;;;;;;;;17.20;99.90;;;;;;5032457;28;19916;-41
2023/05/27 00:49:12;;;;;;;;;;;17.20;99.90;;;;;;5032576;28;20274;-41
2023/05/27 00:51:38;;;;;;;;;;;17.20;99.90;;;;;;5032816;28;19909;-41
2023/05/27 00:54:03;;;;;;;;;;;17.10;99.90;;;;;;5032725;28;19912;-41
2023/05/27 00:56:29;;;;;;;;;;;17.20;99.90;;;;;;5032221;28;19905;-40
2023/05/27 00:58:55;;;;;;;;;;;17.20;99.90;;;;;;5032642;28;19909;-40
2023/05/27 01:01:20;;;;;;;;;;;17.20;99.90;;;;;;5032636;28;20000;-41
2023/05/27 01:03:47;;;;;;;;;;;17.10;99.90;;;;;;5032305;28;19932;-41
2023/05/27 01:06:28;;;;;;;;;;;17.20;99.90;;;;;;5032052;28;20358;-41
2023/05/27 01:08:53;;;;;;;;;;;17.10;99.90;;;;;;5032585;28;19964;-40
2023/05/27 01:11:21;;;;;;;;;;;17.20;99.90;;;;;;5032470;28;19932;-41
2023/05/27 01:13:49;;;;;;;;;;;17.20;99.90;;;;;;5031349;28;19909;-40
2023/05/27 01:16:16;;;;;;;;;;;17.20;99.90;;;;;;5031731;28;19909;-42
2023/05/27 01:18:46;;;;;;;;;;;17.10;99.90;;;;;;5032294;28;19928;-41
2023/05/27 01:21:13;;;;;;;;;;;17.10;99.90;;;;;;5032295;28;19916;-40
2023/05/27 01:23:41;;;;;;;;;;;17.10;99.90;;;;;;5032035;28;20457;-41
2023/05/27 01:26:06;;;;;;;;;;;17.10;99.90;;;;;;5031744;28;20413;-41
2023/05/27 01:28:32;;;;;;;;;;;17.10;99.90;;;;;;5032165;28;20036;-43
2023/05/27 01:31:04;;;;;;;;;;;17.10;99.90;;;;;;5032037;28;20004;-41
2023/05/27 01:33:33;;;;;;;;;;;17.10;99.90;;;;;;5032036;28;19924;-40
2023/05/27 01:36:01;;;;;;;;;;;17.10;99.90;;;;;;5031720;28;19905;-41
2023/05/27 01:38:28;;;;;;;;;;;17.10;99.90;;;;;;5031901;28;20283;-40
2023/05/27 01:40:55;;;;;;;;;;;17.10;99.90;;;;;;5031992;28;19905;-41
2023/05/27 01:43:23;;;;;;;;;;;17.10;99.90;;;;;;5031777;28;19912;-51
2023/05/27 01:45:49;;;;;;;;;;;17.10;99.90;;;;;;5031472;28;19905;-40
2023/05/27 01:48:15;;;;;;;;;;;17.00;99.90;;;;;;5031595;28;19913;-41
2023/05/27 01:50:40;;;;;;;;;;;17.10;99.90;;;;;;5031895;28;19948;-40
2023/05/27 01:53:06;;;;;;;;;;;17.10;99.90;;;;;;5013938;28;20354;-40
2023/05/27 01:55:31;;;;;;;;;;;17.10;99.90;;;;;;5031683;28;19948;-41
2023/05/27 01:57:57;;;;;;;;;;;17.00;99.90;;;;;;5031063;28;20416;-40
2023/05/27 02:00:22;;;;;;;;;;;17.00;99.90;;;;;;5031609;28;19905;-41
2023/05/27 02:02:48;;;;;;;;;;;17.00;99.90;;;;;;5031508;28;19909;-40
2023/05/27 02:05:14;;;;;;;;;;;17.00;99.90;;;;;;5031607;28;19951;-41
2023/05/27 02:07:39;;;;;;;;;;;16.90;99.90;;;;;;5031008;28;19909;-41
2023/05/27 02:10:05;;;;;;;;;;;16.90;99.90;;;;;;5031537;28;20389;-41
2023/05/27 02:12:30;;;;;;;;;;;17.00;99.90;;;;;;5031379;28;19956;-40
2023/05/27 02:14:56;;;;;;;;;;;17.00;99.90;;;;;;5031435;28;19912;-43
2023/05/27 02:17:24;;;;;;;;;;;17.00;99.90;;;;;;5031204;28;19916;-40
2023/05/27 02:19:50;;;;;;;;;;;16.90;99.90;;;;;;5031770;28;20351;-40
2023/05/27 02:22:15;;;;;;;;;;;16.90;99.90;;;;;;5031550;28;19912;-41
2023/05/27 02:24:41;;;;;;;;;;;16.90;99.90;;;;;;5032842;28;19920;-40
2023/05/27 02:27:06;;;;;;;;;;;16.90;99.90;;;;;;5035487;28;19911;-40
2023/05/27 02:29:32;;;;;;;;;;;16.90;99.90;;;;;;5035514;28;19909;-41
2023/05/27 02:31:57;;;;;;;;;;;16.90;99.90;;;;;;5035546;28;19909;-40
2023/05/27 02:34:23;;;;;;;;;;;16.90;99.90;;;;;;5035652;28;20003;-41
2023/05/27 02:36:48;;;;;;;;;;;16.90;99.90;;;;;;5034933;28;19909;-42
2023/05/27 02:39:14;;;;;;;;;;;16.90;99.90;;;;;;5035369;28;19988;-41
2023/05/27 02:41:40;;;;;;;;;;;16.90;99.90;;;;;;5035129;28;20273;-40
2023/05/27 02:44:05;;;;;;;;;;;16.90;99.90;;;;;;5035069;28;19917;-40
2023/05/27 02:46:31;;;;;;;;;;;16.90;99.90;;;;;;5034667;28;19909;-40
2023/05/27 02:48:56;;;;;;;;;;;16.90;99.90;;;;;;5035090;28;19909;-40
2023/05/27 02:51:22;;;;;;;;;;;16.80;99.90;;;;;;5035080;28;19936;-40
2023/05/27 02:53:48;;;;;;;;;;;16.90;99.90;;;;;;5034973;28;19975;-41
2023/05/27 02:56:13;;;;;;;;;;;16.80;99.90;;;;;;5034457;28;19933;-40
2023/05/27 02:58:39;;;;;;;;;;;16.90;99.90;;;;;;5034982;28;20444;-40
2023/05/27 03:01:05;;;;;;;;;;;16.90;99.90;;;;;;5035047;28;19909;-41
2023/05/27 03:03:30;;;;;;;;;;;16.90;99.90;;;;;;5034810;28;20370;-40
2023/05/27 03:05:56;;;;;;;;;;;16.90;99.90;;;;;;5034455;28;19999;-40
2023/05/27 03:08:21;;;;;;;;;;;16.90;99.90;;;;;;5034597;28;19909;-40
2023/05/27 03:10:47;;;;;;;;;;;16.90;99.90;;;;;;5034686;28;19966;-40
2023/05/27 03:13:12;;;;;;;;;;;16.90;99.90;;;;;;5034778;28;19905;-41
2023/05/27 03:15:38;;;;;;;;;;;16.90;99.90;;;;;;5034766;28;19905;-41
2023/05/27 03:18:03;;;;;;;;;;;16.80;99.90;;;;;;5034223;28;20379;-41
2023/05/27 03:20:29;;;;;;;;;;;16.80;99.90;;;;;;5034574;28;20359;-40
2023/05/27 03:22:56;;;;;;;;;;;16.80;99.90;;;;;;5034417;28;20286;-41
2023/05/27 03:25:21;;;;;;;;;;;16.80;99.90;;;;;;5034395;28;19992;-40
2023/05/27 03:27:47;;;;;;;;;;;16.90;99.90;;;;;;5033950;28;20019;-41
2023/05/27 03:30:12;;;;;;;;;;;16.90;99.90;;;;;;5034343;28;20022;-40
2023/05/27 03:32:38;;;;;;;;;;;16.80;99.90;;;;;;5034430;28;19991;-40
2023/05/27 03:35:03;;;;;;;;;;;16.80;99.90;;;;;;5034199;28;19989;-41
2023/05/27 03:37:29;;;;;;;;;;;16.90;99.90;;;;;;5014949;28;19905;-40
2023/05/27 03:39:55;;;;;;;;;;;16.80;99.90;;;;;;5034075;28;20275;-43
2023/05/27 03:42:20;;;;;;;;;;;16.80;99.90;;;;;;5034365;28;20255;-40
2023/05/27 03:44:46;;;;;;;;;;;16.80;99.90;;;;;;5033888;28;20312;-42
2023/05/27 03:47:12;;;;;;;;;;;16.80;99.90;;;;;;5033484;28;19909;-40
2023/05/27 03:49:37;;;;;;;;;;;16.80;99.90;;;;;;5033898;28;19919;-40
2023/05/27 03:52:03;;;;;;;;;;;16.80;99.90;;;;;;5034450;28;19909;-40
2023/05/27 03:54:29;;;;;;;;;;;16.80;99.90;;;;;;5033704;28;19905;-41
2023/05/27 03:56:54;;;;;;;;;;;16.80;99.90;;;;;;5033482;28;19905;-41
2023/05/27 03:59:20;;;;;;;;;;;16.80;99.90;;;;;;5033793;28;20363;-41
2023/05/27 04:01:46;;;;;;;;;;;16.80;99.90;;;;;;5033820;28;20569;-42
2023/05/27 04:04:12;;;;;;;;;;;16.70;99.90;;;;;;5033674;28;19932;-41
2023/05/27 04:06:38;;;;;;;;;;;16.80;99.90;;;;;;5033295;28;20379;-40
2023/05/27 04:09:04;;;;;;;;;;;16.80;99.90;;;;;;5033893;28;19967;-40
2023/05/27 04:11:30;;;;;;;;;;;16.80;99.90;;;;;;5033610;28;19911;-41
2023/05/27 04:13:56;;;;;;;;;;;16.80;99.90;;;;;;5033554;28;19909;-40
2023/05/27 04:16:21;;;;;;;;;;;16.70;99.90;;;;;;5033050;28;19912;-39
2023/05/27 04:18:49;;;;;;;;;;;16.70;99.90;;;;;;5033434;28;19959;-41
2023/05/27 04:21:15;;;;;;;;;;;16.70;99.90;;;;;;5033441;28;20461;-42
2023/05/27 04:23:40;;;;;;;;;;;16.70;99.90;;;;;;5033306;28;19905;-40
2023/05/27 04:26:06;;;;;;;;;;;16.70;99.90;;;;;;5032847;28;19927;-40
2023/05/27 04:28:31;;;;;;;;;;;16.70;99.90;;;;;;5033357;28;20394;-41
2023/05/27 04:30:57;;;;;;;;;;;16.70;99.90;;;;;;5033237;28;20385;-40
2023/05/27 04:33:22;;;;;;;;;;;16.70;99.90;;;;;;5033202;28;20477;-41
2023/05/27 04:35:48;;;;;;;;;;;16.70;99.90;;;;;;5032776;28;19905;-40
2023/05/27 04:38:16;;;;;;;;;;;16.60;99.90;;;;;;5032809;28;19905;-41
2023/05/27 04:40:42;;;;;;;;;;;16.70;99.90;;;;;;5033077;28;19958;-41
2023/05/27 04:43:07;;;;;;;;;;;16.60;99.90;;;;;;5032808;28;19913;-40
2023/05/27 04:45:34;;;;;;;;;;;16.60;99.90;;;;;;5033021;28;19956;-40
2023/05/27 04:48:00;;;;;;;;;;;16.60;99.90;;;;;;5032185;28;19909;-40
2023/05/27 04:50:26;;;;;;;;;;;16.60;99.90;;;;;;5032853;28;19913;-40
2023/05/27 04:52:52;;;;;;;;;;;16.60;99.90;;;;;;5032639;28;19923;-40
2023/05/27 04:55:18;;;;;;;;;;;16.60;99.90;;;;;;5032717;28;20271;-40
2023/05/27 04:57:43;;;;;;;;;;;16.70;99.90;;;;;;5032145;28;19916;-41
2023/05/27 05:02:35;;;;;;;;;;;16.60;99.90;;;;;;5032724;28;19905;-41
2023/05/27 05:05:02;;;;;;;;;;;16.60;99.90;;;;;;5032487;28;19913;-40
2023/05/27 05:07:27;;;;;;;;;;;16.60;99.90;;;;;;5031836;28;19931;-40
2023/05/27 05:09:53;;;;;;;;;;;16.60;99.90;;;;;;5032452;28;20382;-41
2023/05/27 05:12:18;;;;;;;;;;;16.60;99.90;;;;;;5032380;28;20000;-41
2023/05/27 05:14:44;;;;;;;;;;;16.60;99.90;;;;;;5032497;28;19962;-40
2023/05/27 05:17:09;;;;;;;;;;;16.60;99.90;;;;;;5031917;28;19952;-41
2023/05/27 05:19:35;;;;;;;;;;;16.60;99.90;;;;;;5032347;28;19946;-41
2023/05/27 05:22:00;;;;;;;;;;;16.50;99.90;;;;;;5032163;28;19911;-40
2023/05/27 05:24:26;;;;;;;;;;;16.50;99.90;;;;;;5032249;28;19912;-41
2023/05/27 05:26:51;;;;;;;;;;;16.60;99.90;;;;;;5031666;28;19912;-41
2023/05/27 05:29:16;;;;;;;;;;;16.60;99.90;;;;;;5031849;28;19915;-40
2023/05/27 05:31:44;;;;;;;;;;;16.60;99.90;;;;;;5032457;28;20460;-41
2023/05/27 05:34:10;;;;;;;;;;;16.60;99.90;;;;;;5032030;28;20358;-40
2023/05/27 05:36:36;;;;;;;;;;;16.60;99.90;;;;;;5031331;28;19913;-41
2023/05/27 05:39:02;;;;;;;;;;;16.60;99.90;;;;;;5032002;28;19988;-42
2023/05/27 05:41:28;;;;;;;;;;;16.60;99.90;;;;;;5031890;28;19905;-40
2023/05/27 05:43:54;;;;;;;;;;;16.60;99.90;;;;;;5031748;28;19923;-41
2023/05/27 05:46:19;;;;;;;;;;;16.60;99.90;;;;;;5031324;28;19931;-40
2023/05/27 05:48:45;;;;;;;;;;;16.60;99.90;;;;;;5031775;28;20427;-42
2023/05/27 05:51:10;;;;;;;;;;;16.70;99.90;;;;;;5031508;28;19905;-41
2023/05/27 05:53:36;;;;;;;;;;;16.70;99.90;;;;;;5031665;28;19909;-40
2023/05/27 05:56:01;;;;;;;;;;;16.70;99.90;;;;;;5031274;28;19955;-40
2023/05/27 05:58:27;;;;;;;;;;;16.70;99.90;;;;;;5031322;28;19912;-40
2023/05/27 06:00:52;;;;;;;;;;;16.70;99.90;;;;;;5031285;28;19991;-41
2023/05/27 06:03:18;;;;;;;;;;;16.70;99.90;;;;;;5031545;28;19905;-41
2023/05/27 06:05:43;;;;;;;;;;;16.70;99.90;;;;;;5031184;28;20275;-40
2023/05/27 06:08:09;;;;;;;;;;;16.70;99.90;;;;;;5031193;28;19949;-41
2023/05/27 06:10:34;;;;;;;;;;;16.70;99.90;;;;;;5031495;28;19991;-41
2023/05/27 06:13:00;;;;;;;;;;;16.70;99.90;;;;;;5031456;28;20317;-40
2023/05/27 06:15:26;;;;;;;;;;;16.70;99.90;;;;;;5031461;28;19975;-40
2023/05/27 06:17:53;;;;;;;;;;;16.80;99.90;;;;;;5031080;28;19905;-40
2023/05/27 06:20:18;;;;;;;;;;;16.80;99.90;;;;;;5031422;28;19999;-40
2023/05/27 06:22:46;;;;;;;;;;;16.80;99.90;;;;;;5031432;28;20004;-41
2023/05/27 06:25:12;;;;;;;;;;;16.80;99.90;;;;;;5031723;28;20322;-40
2023/05/27 06:27:37;;;;;;;;;;;16.80;99.90;;;;;;5030925;28;19944;-40
2023/05/27 06:30:03;;;;;;;;;;;16.80;99.90;;;;;;5031298;28;20413;-41
2023/05/27 06:32:28;;;;;;;;;;;16.80;99.90;;;;;;5031298;28;19948;-41
2023/05/27 06:34:54;;;;;;;;;;;16.90;99.90;;;;;;5031061;28;19905;-40
2023/05/27 06:37:19;;;;;;;;;;;16.90;99.90;;;;;;5030745;28;19912;-41
2023/05/27 06:39:45;;;;;;;;;;;16.90;99.90;;;;;;5031629;28;19909;-41
2023/05/27 06:42:10;;;;;;;;;;;16.90;99.90;;;;;;5031210;28;20436;-41
2023/05/27 06:44:36;;;;;;;;;;;16.90;99.90;;;;;;5031059;28;19913;-41
2023/05/27 06:47:01;;;;;;;;;;;16.90;99.90;;;;;;5030635;28;20005;-42
2023/05/27 06:49:27;;;;;;;;;;;16.90;99.90;;;;;;5031010;28;20396;-41
2023/05/27 06:51:53;;;;;;;;;;;16.90;99.90;;;;;;5031311;28;19920;-40
2023/05/27 06:54:18;;;;;;;;;;;16.90;99.90;;;;;;5031045;28;19909;-40
2023/05/27 06:56:44;;;;;;;;;;;16.90;99.90;;;;;;5030641;28;19905;-41
2023/05/27 06:59:09;;;;;;;;;;;16.90;99.90;;;;;;5013308;28;19913;-40
2023/05/27 07:01:35;;;;;;;;;;;16.90;99.90;;;;;;5031022;28;19908;-40
2023/05/27 07:04:01;;;;;;;;;;;17.00;99.90;;;;;;5030888;28;20323;-41
2023/05/27 07:06:26;;;;;;;;;;;16.90;99.90;;;;;;5030453;28;19916;-40
2023/05/27 07:08:52;;;;;;;;;;;17.00;99.90;;;;;;5030881;28;19909;-43
2023/05/27 07:11:17;;;;;;;;;;;17.00;99.90;;;;;;5033278;28;19905;-41
2023/05/27 07:13:43;;;;;;;;;;;17.00;99.90;;;;;;5034952;28;19927;-40
2023/05/27 07:16:08;;;;;;;;;;;16.90;99.90;;;;;;5034243;28;19944;-41
2023/05/27 07:18:34;;;;;;;;;;;17.00;99.90;;;;;;5034645;28;20042;-40
2023/05/27 07:20:59;;;;;;;;;;;16.90;99.90;;;;;;5034592;28;19962;-41
2023/05/27 07:23:25;;;;;;;;;;;17.00;99.90;;;;;;5034521;28;20381;-40
2023/05/27 07:25:50;;;;;;;;;;;16.90;99.90;;;;;;5034413;28;19912;-41
2023/05/27 07:28:16;;;;;;;;;;;17.00;99.90;;;;;;5034343;28;19916;-40
2023/05/27 07:30:42;;;;;;;;;;;16.90;99.90;;;;;;5034484;28;20485;-40
2023/05/27 07:33:07;;;;;;;;;;;17.00;99.90;;;;;;5034281;28;20393;-40
2023/05/27 07:35:33;;;;;;;;;;;17.00;99.90;;;;;;5034199;28;20003;-41
2023/05/27 07:37:58;;;;;;;;;;;17.00;99.90;;;;;;5033775;28;19905;-40
2023/05/27 07:40:24;;;;;;;;;;;17.00;99.90;;;;;;5034188;28;19905;-41
2023/05/27 07:42:49;;;;;;;;;;;17.00;99.90;;;;;;5034024;28;19915;-41
2023/05/27 07:45:15;;;;;;;;;;;17.00;99.90;;;;;;5035184;28;20386;-41
2023/05/27 07:47:41;;;;;;;;;;;17.00;99.90;;;;;;5033466;28;19909;-41
2023/05/27 07:50:07;;;;;;;;;;;17.00;99.90;;;;;;5034446;28;20266;-41
2023/05/27 07:52:33;;;;;;;;;;;17.00;99.90;;;;;;5033895;28;19948;-41
2023/05/27 07:54:58;;;;;;;;;;;17.00;99.90;;;;;;5034128;28;19932;-41
2023/05/27 07:57:24;;;;;;;;;;;17.00;99.90;;;;;;5033419;28;19905;-40
2023/05/27 07:59:50;;;;;;;;;;;17.00;99.90;;;;;;5033866;28;20307;-40
2023/05/27 08:02:15;;;;;;;;;;;17.10;99.90;;;;;;5033793;28;19920;-41
2023/05/27 08:04:43;;;;;;;;;;;17.00;99.90;;;;;;5033596;28;19971;-41
2023/05/27 08:07:09;;;;;;;;;;;17.10;99.90;;;;;;5033232;28;19951;-41
2023/05/27 08:09:34;;;;;;;;;;;17.10;99.90;;;;;;5034221;28;19909;-41
2023/05/27 08:12:00;;;;;;;;;;;17.10;99.90;;;;;;5033703;28;19951;-40
2023/05/27 08:14:27;;;;;;;;;;;17.10;99.90;;;;;;5033539;28;19909;-41
2023/05/27 08:16:53;;;;;;;;;;;17.10;99.90;;;;;;5033132;28;19905;-41
2023/05/27 08:19:19;;;;;;;;;;;17.10;99.90;;;;;;5034080;28;20313;-40
2023/05/27 08:21:44;;;;;;;;;;;17.10;99.90;;;;;;5033014;28;20389;-41
2023/05/27 08:24:10;;;;;;;;;;;17.10;99.90;;;;;;5033273;28;20385;-41
2023/05/27 08:26:35;;;;;;;;;;;17.10;99.90;;;;;;5032907;28;20055;-41
2023/05/27 08:29:01;;;;;;;;;;;17.20;99.90;;;;;;5033244;28;19913;-40
2023/05/27 08:31:27;;;;;;;;;;;17.10;99.90;;;;;;5033172;28;19909;-40
2023/05/27 08:33:52;;;;;;;;;;;17.10;99.90;;;;;;5033036;28;19967;-40
2023/05/27 08:36:19;;;;;;;;;;;17.20;99.90;;;;;;5032679;28;19915;-41
2023/05/27 08:38:44;;;;;;;;;;;17.20;99.90;;;;;;5033076;28;20004;-41
2023/05/27 08:41:10;;;;;;;;;;;17.20;99.90;;;;;;5033080;28;20003;-40
2023/05/27 08:43:36;;;;;;;;;;;17.20;99.90;;;;;;5032851;28;20370;-40
2023/05/27 08:46:02;;;;;;;;;;;17.20;99.90;;;;;;5032590;28;20000;-42
2023/05/27 08:48:27;;;;;;;;;;;17.20;99.90;;;;;;5032651;28;19909;-41
2023/05/27 08:50:53;;;;;;;;;;;17.20;99.90;;;;;;5032869;28;20440;-40
2023/05/27 08:53:18;;;;;;;;;;;17.30;99.90;;;;;;5032780;28;19909;-42
2023/05/27 08:55:44;;;;;;;;;;;17.20;99.90;;;;;;5032610;28;19941;-40
2023/05/27 08:58:10;;;;;;;;;;;17.30;99.90;;;;;;5032548;28;20314;-42
2023/05/27 09:00:36;;;;;;;;;;;17.20;99.90;;;;;;5032658;28;19915;-40
2023/05/27 09:03:02;;;;;;;;;;;17.30;99.90;;;;;;5032475;28;19905;-41
2023/05/27 09:05:28;;;;;;;;;;;17.30;99.90;;;;;;5032602;28;19904;-41
2023/05/27 09:07:53;;;;;;;;;;;17.30;99.90;;;;;;5032024;28;20294;-42
2023/05/27 09:10:19;;;;;;;;;;;17.30;99.90;;;;;;5032592;28;19905;-40
2023/05/27 09:12:45;;;;;;;;;;;17.30;99.90;;;;;;5032535;28;19947;-40
2023/05/27 09:15:11;;;;;;;;;;;17.30;99.90;;;;;;5032471;28;19909;-41
2023/05/27 09:17:43;;;;;;;;;;;17.30;99.90;;;;;;5031782;28;19909;-41
2023/05/27 09:20:10;;;;;;;;;;;17.30;99.90;;;;;;5032558;28;19943;-40
2023/05/27 09:22:36;;;;;;;;;;;17.30;99.90;;;;;;5032234;28;20055;-41
2023/05/27 09:25:02;;;;;;;;;;;17.30;99.90;;;;;;5032203;28;20377;-40
2023/05/27 09:27:28;;;;;;;;;;;17.40;99.90;;;;;;5031697;28;20350;-40
2023/05/27 09:29:57;;;;;;;;;;;17.30;99.90;;;;;;5031931;28;19944;-41
2023/05/27 09:32:27;;;;;;;;;;;17.40;99.90;;;;;;5032144;28;19987;-41
2023/05/27 09:34:53;;;;;;;;;;;17.40;99.90;;;;;;5031183;28;19912;-40
2023/05/27 09:37:20;;;;;;;;;;;17.40;99.90;;;;;;5031519;28;19979;-40
2023/05/27 09:39:46;;;;;;;;;;;17.40;99.90;;;;;;5031963;28;19916;-40
2023/05/27 09:42:13;;;;;;;;;;;17.40;99.90;;;;;;5031883;28;19909;-41
2023/05/27 09:44:40;;;;;;;;;;;17.40;99.90;;;;;;5031602;28;20359;-41
2023/05/27 09:47:07;;;;;;;;;;;17.40;99.90;;;;;;5031390;28;19909;-41
2023/05/27 09:49:34;;;;;;;;;;;17.40;99.90;;;;;;5031765;28;19927;-41
2023/05/27 09:52:01;;;;;;;;;;;17.40;99.90;;;;;;5031741;28;19995;-42
2023/05/27 09:54:27;;;;;;;;;;;17.40;99.90;;;;;;5031708;28;19905;-40
2023/05/27 09:56:52;;;;;;;;;;;17.40;99.90;;;;;;5031125;28;19909;-41
2023/05/27 09:59:18;;;;;;;;;;;17.40;99.90;;;;;;5031616;28;19905;-40
2023/05/27 10:01:45;;;;;;;;;;;17.40;99.90;;;;;;5031693;28;20424;-40
2023/05/27 10:04:13;;;;;;;;;;;17.50;99.90;;;;;;5031614;28;20297;-42
2023/05/27 10:06:40;;;;;;;;;;;17.40;99.90;;;;;;5031168;28;19991;-40
2023/05/27 10:09:06;;;;;;;;;;;17.50;99.90;;;;;;5031543;28;19967;-41
2023/05/27 10:11:35;;;;;;;;;;;17.50;99.90;;;;;;5031476;28;20382;-41
2023/05/27 10:14:01;;;;;;;;;;;17.50;99.90;;;;;;5031532;28;19909;-40
2023/05/27 10:16:27;;;;;;;;;;;17.50;99.90;;;;;;5030958;28;19915;-40
2023/05/27 10:18:53;;;;;;;;;;;17.50;99.90;;;;;;5031446;28;19955;-40
2023/05/27 10:21:20;;;;;;;;;;;17.50;99.90;;;;;;5031422;28;19952;-41
2023/05/27 10:24:02;;;;;;;;;;;17.50;99.90;;;;;;5031324;28;20401;-41
2023/05/27 10:26:33;;;;;;;;;;;17.50;99.90;;;;;;5013093;28;19905;-41
2023/05/27 10:29:12;;;;;;;;;;;17.50;99.90;;;;;;5031050;28;20370;-40
2023/05/27 10:31:47;;;;;;;;;;;17.60;99.90;;;;;;5031326;28;19911;-40
2023/05/27 10:34:13;;;;;;;;;;;17.50;99.90;;;;;;5031182;28;19919;-40
2023/05/27 10:36:38;;;;;;;;;;;17.60;99.90;;;;;;5031414;28;19905;-42
2023/05/27 10:39:05;;;;;;;;;;;17.60;99.90;;;;;;5031275;28;20031;-41
2023/05/27 10:41:50;;;;;;;;;;;17.60;99.90;;;;;;5031277;28;19912;-42
2023/05/27 10:44:47;;;;;;;;;;;17.60;99.90;;;;;;5031044;28;19917;-40
2023/05/27 10:47:13;;;;;;;;;;;17.60;99.90;;;;;;4990434;28;19905;-40
2023/05/27 10:49:39;;;;;;;;;;;17.70;99.90;;;;;;5035175;28;19955;-40
2023/05/27 10:52:15;;;;;;;;;;;17.70;99.90;;;;;;5035379;28;19905;-40
2023/05/27 10:54:42;;;;;;;;;;;17.70;99.90;;;;;;5035046;28;20354;-40
2023/05/27 10:57:07;;;;;;;;;;;17.70;99.90;;;;;;5034417;28;19948;-41
2023/05/27 10:59:53;;;;;;;;;;;17.70;99.90;;;;;;5034904;28;20393;-40
2023/05/27 11:02:19;;;;;;;;;;;17.70;99.90;;;;;;5034407;28;19932;-41
2023/05/27 11:04:45;;;;;;;;;;;17.70;99.90;;;;;;5034885;28;20333;-42
2023/05/27 11:07:10;;;;;;;;;;;17.70;99.90;;;;;;5034751;28;19936;-41
2023/05/27 11:09:42;;;;;;;;;;;17.70;99.90;;;;;;5034804;28;20397;-41
2023/05/27 11:12:08;;;;;;;;;;;17.70;99.90;;;;;;5034759;28;20151;-41
2023/05/27 11:14:33;;;;;;;;;;;17.70;99.90;;;;;;5034682;28;19957;-40
2023/05/27 11:16:59;;;;;;;;;;;17.70;99.90;;;;;;5034146;28;20252;-40
2023/05/27 11:19:25;;;;;;;;;;;17.80;99.90;;;;;;5034596;28;19995;-40
2023/05/27 11:21:51;;;;;;;;;;;17.80;99.90;;;;;;5034537;28;19912;-41
2023/05/27 11:24:17;;;;;;;;;;;17.70;99.90;;;;;;5034518;28;20390;-40
2023/05/27 11:26:44;;;;;;;;;;;17.80;99.90;;;;;;5033981;28;19909;-42
2023/05/27 11:29:09;;;;;;;;;;;17.80;99.90;;;;;;5034949;28;19923;-41
2023/05/27 11:31:36;;;;;;;;;;;17.80;99.90;;;;;;5034498;28;19909;-41
2023/05/27 11:34:01;;;;;;;;;;;17.80;99.90;;;;;;5034236;28;19908;-41
2023/05/27 11:36:27;;;;;;;;;;;17.80;99.90;;;;;;5033905;28;19951;-41
2023/05/27 11:38:57;;;;;;;;;;;17.80;99.90;;;;;;5034328;28;19909;-42
2023/05/27 11:41:25;;;;;;;;;;;17.80;99.90;;;;;;5034394;28;19955;-40
2023/05/27 11:44:00;;;;;;;;;;;17.80;99.90;;;;;;5034049;28;19913;-41
2023/05/27 11:46:39;;;;;;;;;;;17.90;99.90;;;;;;5033657;28;19924;-41
2023/05/27 11:49:09;;;;;;;;;;;17.90;99.90;;;;;;5033977;28;19909;-41
2023/05/27 11:51:36;;;;;;;;;;;17.90;99.90;;;;;;5033947;28;19916;-41
2023/05/27 11:54:01;;;;;;;;;;;17.90;99.90;;;;;;5033973;28;19905;-40
2023/05/27 11:56:28;;;;;;;;;;;17.90;99.90;;;;;;5033127;28;20099;-41
2023/05/27 11:58:54;;;;;;;;;;;17.90;99.90;;;;;;5033594;28;20501;-40
2023/05/27 12:01:20;;;;;;;;;;;17.90;99.90;;;;;;5033951;28;20004;-40
2023/05/27 12:03:45;;;;;;;;;;;17.90;99.90;;;;;;5033745;28;19905;-40
2023/05/27 12:06:11;;;;;;;;;;;17.90;99.90;;;;;;5033300;28;19905;-40
2023/05/27 12:08:38;;;;;;;;;;;17.90;99.90;;;;;;5033705;28;19909;-41
2023/05/27 12:11:03;;;;;;;;;;;17.90;99.90;;;;;;5033732;28;19986;-43
2023/05/27 12:13:30;;;;;;;;;;;17.90;99.90;;;;;;5033582;28;20331;-41
2023/05/27 12:15:56;;;;;;;;;;;17.90;99.90;;;;;;5033276;28;19909;-41
2023/05/27 12:18:21;;;;;;;;;;;18.00;99.90;;;;;;5033381;28;19905;-41
2023/05/27 12:20:47;;;;;;;;;;;18.00;99.90;;;;;;5033426;28;19952;-41
2023/05/27 12:23:12;;;;;;;;;;;17.90;99.90;;;;;;5033392;28;19908;-42
2023/05/27 12:25:38;;;;;;;;;;;17.90;99.90;;;;;;5033449;28;20390;-41
2023/05/27 12:28:06;;;;;;;;;;;18.00;99.90;;;;;;5032831;28;19999;-41
2023/05/27 12:30:32;;;;;;;;;;;18.00;99.90;;;;;;5033321;28;19959;-40
2023/05/27 12:32:58;;;;;;;;;;;18.00;99.90;;;;;;5033178;28;19905;-40
2023/05/27 12:35:24;;;;;;;;;;;18.00;99.90;;;;;;5033086;28;20354;-41
2023/05/27 12:37:50;;;;;;;;;;;18.00;99.90;;;;;;5032716;28;19909;-41
2023/05/27 12:40:15;;;;;;;;;;;18.00;99.90;;;;;;5033164;28;19935;-42
2023/05/27 12:42:41;;;;;;;;;;;18.00;99.90;;;;;;5033092;28;19912;-41
2023/05/27 12:45:10;;;;;;;;;;;18.00;99.90;;;;;;5033038;28;20398;-40
2023/05/27 12:47:36;;;;;;;;;;;18.00;99.90;;;;;;5032391;28;19905;-41
2023/05/27 12:50:01;;;;;;;;;;;18.10;99.90;;;;;;5032757;28;19921;-40
2023/05/27 12:52:28;;;;;;;;;;;18.00;99.90;;;;;;5032968;28;19913;-40
2023/05/27 12:54:53;;;;;;;;;;;18.00;99.90;;;;;;5032811;28;19944;-40
2023/05/27 12:57:19;;;;;;;;;;;18.00;99.90;;;;;;5032597;28;19940;-40
2023/05/27 12:59:45;;;;;;;;;;;18.10;99.90;;;;;;5032819;28;19905;-41
2023/05/27 13:02:10;;;;;;;;;;;18.10;99.90;;;;;;5032755;28;20267;-42
2023/05/27 13:04:36;;;;;;;;;;;18.10;99.90;;;;;;5032593;28;19913;-42
2023/05/27 13:07:01;;;;;;;;;;;18.10;99.90;;;;;;5032056;28;19911;-40
2023/05/27 13:09:27;;;;;;;;;;;18.00;99.90;;;;;;5032563;28;20283;-40
2023/05/27 13:11:52;;;;;;;;;;;18.10;99.90;;;;;;5032535;28;19983;-41
2023/05/27 13:14:18;;;;;;;;;;;18.10;99.90;;;;;;5032413;28;19963;-40
2023/05/27 13:16:43;;;;;;;;;;;18.10;99.90;;;;;;5031906;28;19916;-40
2023/05/27 13:19:09;;;;;;;;;;;18.10;99.90;;;;;;5032281;28;19912;-40
2023/05/27 13:21:35;;;;;;;;;;;18.10;99.90;;;;;;5032334;28;20432;-43
2023/05/27 13:24:00;;;;;;;;;;;18.10;99.90;;;;;;5032250;28;20425;-42
2023/05/27 13:26:28;;;;;;;;;;;18.10;99.90;;;;;;5031762;28;19909;-40
2023/05/27 13:28:54;;;;;;;;;;;18.10;99.90;;;;;;5032152;28;20341;-40
2023/05/27 13:31:20;;;;;;;;;;;18.10;99.90;;;;;;5032190;28;19905;-40
2023/05/27 13:33:45;;;;;;;;;;;18.10;99.90;;;;;;5031945;28;19905;-43
2023/05/27 13:36:11;;;;;;;;;;;18.10;99.90;;;;;;5031569;28;19905;-41
2023/05/27 13:38:36;;;;;;;;;;;18.10;99.90;;;;;;5032028;28;19909;-42
2023/05/27 13:41:02;;;;;;;;;;;18.20;99.90;;;;;;5032038;28;20370;-41
2023/05/27 13:43:27;;;;;;;;;;;18.20;99.90;;;;;;5032409;28;19957;-44
2023/05/27 13:45:53;;;;;;;;;;;18.10;99.90;;;;;;5032098;28;19905;-41
2023/05/27 13:48:18;;;;;;;;;;;18.20;99.90;;;;;;5031662;28;20012;-41
2023/05/27 13:50:44;;;;;;;;;;;18.20;99.90;;;;;;5031862;28;19905;-41
2023/05/27 13:53:09;;;;;;;;;;;18.10;99.90;;;;;;5031840;28;19909;-41
2023/05/27 13:55:35;;;;;;;;;;;18.10;99.90;;;;;;5031818;28;19909;-43
2023/05/27 13:58:00;;;;;;;;;;;18.10;99.90;;;;;;5031444;28;19959;-41
2023/05/27 14:00:26;;;;;;;;;;;18.20;99.90;;;;;;5031798;28;19968;-40
2023/05/27 14:02:53;;;;;;;;;;;18.20;99.90;;;;;;5032036;28;20313;-41
2023/05/27 14:05:19;;;;;;;;;;;18.20;99.90;;;;;;5031840;28;19960;-40
2023/05/27 14:07:46;;;;;;;;;;;18.20;99.90;;;;;;5031152;28;20330;-41
2023/05/27 14:10:11;;;;;;;;;;;18.20;99.90;;;;;;5031904;28;20294;-41
2023/05/27 14:12:37;;;;;;;;;;;18.20;99.90;;;;;;5031548;28;19905;-43